createdAt,value
2018-07-05T00:00:39.648Z,29.13
2018-07-05T00:03:33.370Z,35.07
2018-07-05T00:06:20.945Z,36.60
2018-07-05T00:09:14.414Z,32.17
2018-07-05T00:12:08.061Z,34.73
2018-07-05T00:15:01.457Z,33.40
2018-07-05T00:17:55.089Z,32.77
2018-07-05T00:20:48.648Z,30.00
2018-07-05T00:23:42.148Z,30.87
2018-07-05T00:26:35.695Z,33.17
2018-07-05T00:29:29.363Z,27.70
2018-07-05T00:32:24.918Z,30.43
2018-07-05T00:35:20.013Z,31.73
2018-07-05T00:38:13.677Z,25.30
2018-07-05T00:41:07.140Z,33.93
2018-07-05T00:44:00.908Z,31.53
2018-07-05T00:46:54.458Z,28.27
2018-07-05T00:49:48.095Z,27.93
2018-07-05T00:52:41.501Z,28.87
2018-07-05T00:55:35.246Z,29.33
2018-07-05T00:58:28.826Z,35.07
2018-07-05T01:01:22.404Z,31.17
2018-07-05T01:04:16.601Z,29.40
2018-07-05T01:07:04.249Z,31.23
2018-07-05T01:09:57.805Z,31.00
2018-07-05T01:12:51.277Z,32.73
2018-07-05T01:15:44.725Z,28.60
2018-07-05T01:18:38.299Z,31.37
2018-07-05T01:21:31.856Z,34.30
2018-07-05T01:24:25.416Z,30.63
2018-07-05T01:27:19.090Z,28.63
2018-07-05T01:30:12.640Z,28.00
2018-07-05T01:33:05.949Z,28.10
2018-07-05T01:35:59.470Z,33.23
2018-07-05T01:38:52.968Z,26.97
2018-07-05T01:41:47.093Z,30.47
2018-07-05T01:44:41.251Z,35.03
2018-07-05T01:47:28.690Z,35.67
2018-07-05T01:50:22.055Z,41.37
2018-07-05T01:53:15.609Z,57.43
2018-07-05T01:56:09.119Z,44.93
2018-07-05T01:59:16.840Z,37.67
2018-07-05T02:02:05.866Z,33.17
2018-07-05T02:04:59.197Z,30.77
2018-07-05T02:07:52.675Z,35.93
2018-07-05T02:10:46.292Z,29.83
2018-07-05T02:13:40.090Z,38.57
2018-07-05T02:16:33.629Z,28.30
2018-07-05T02:19:27.263Z,30.83
2018-07-05T02:22:20.708Z,30.33
2018-07-05T02:25:17.926Z,29.00
2018-07-05T02:28:11.381Z,34.23
2018-07-05T02:31:04.938Z,31.13
2018-07-05T02:34:03.413Z,35.27
2018-07-05T02:36:57.004Z,24.90
2018-07-05T02:39:49.475Z,29.70
2018-07-05T02:42:42.925Z,26.90
2018-07-05T02:45:36.394Z,28.53
2018-07-05T02:48:29.866Z,24.87
2018-07-05T02:51:23.353Z,25.67
2018-07-05T02:54:17.208Z,31.93
2018-07-05T02:57:04.777Z,29.50
2018-07-05T02:59:58.226Z,30.07
2018-07-05T03:03:05.056Z,29.93
2018-07-05T03:05:59.328Z,33.83
2018-07-05T03:08:52.818Z,33.63
2018-07-05T03:11:46.414Z,34.47
2018-07-05T03:14:40.162Z,35.37
2018-07-05T03:17:33.702Z,38.77
2018-07-05T03:20:27.354Z,43.87
2018-07-05T03:23:20.763Z,37.80
2018-07-05T03:26:14.486Z,43.53
2018-07-05T03:29:07.968Z,41.30
2018-07-05T03:31:55.488Z,51.97
2018-07-05T03:34:49.179Z,46.30
2018-07-05T03:37:42.687Z,49.70
2018-07-05T03:40:35.982Z,50.77
2018-07-05T03:43:29.812Z,73.70
2018-07-05T03:46:24.591Z,62.47
2018-07-05T03:49:18.153Z,72.80
2018-07-05T03:52:11.713Z,136.03
2018-07-05T03:55:05.205Z,65.03
2018-07-05T03:57:58.883Z,59.40
2018-07-05T04:00:52.569Z,59.57
2018-07-05T04:03:40.264Z,56.07
2018-07-05T04:06:33.734Z,46.00
2018-07-05T04:09:27.296Z,49.33
2018-07-05T04:12:20.847Z,43.00
2018-07-05T04:15:16.240Z,39.67
2018-07-05T04:18:09.934Z,42.93
2018-07-05T04:21:03.536Z,40.47
2018-07-05T04:23:56.974Z,42.90
2018-07-05T04:26:50.260Z,38.40
2018-07-05T04:29:43.762Z,38.43
2018-07-05T04:32:37.335Z,40.10
2018-07-05T04:35:31.428Z,40.93
2018-07-05T04:38:24.955Z,34.60
2018-07-05T04:41:18.466Z,37.80
2018-07-05T04:44:12.146Z,38.57
2018-07-05T04:47:07.074Z,34.07
2018-07-05T04:50:01.041Z,31.93
2018-07-05T04:52:54.721Z,35.10
2018-07-05T04:55:48.094Z,38.53
2018-07-05T04:58:41.601Z,34.67
2018-07-05T05:01:35.231Z,34.80
2018-07-05T05:04:28.765Z,33.17
2018-07-05T05:07:22.382Z,30.33
2018-07-05T05:10:17.867Z,35.97
2018-07-05T05:13:11.235Z,35.10
2018-07-05T05:16:04.858Z,31.03
2018-07-05T05:18:58.368Z,31.30
2018-07-05T05:21:52.025Z,30.50
2018-07-05T05:24:40.631Z,26.50
2018-07-05T05:27:34.023Z,24.12
2018-07-05T05:30:27.427Z,23.80
2018-07-05T05:33:20.836Z,22.67
2018-07-05T05:36:14.486Z,22.20
2018-07-05T05:39:09.043Z,25.63
2018-07-05T05:42:02.620Z,24.07
2018-07-05T05:44:56.445Z,22.43
2018-07-05T05:47:50.682Z,25.63
2018-07-05T05:50:44.447Z,24.47
2018-07-05T05:53:38.137Z,30.87
2018-07-05T05:56:31.455Z,34.03
2018-07-05T05:59:25.022Z,29.43
2018-07-05T06:02:19.694Z,26.90
2018-07-05T06:05:15.078Z,28.20
2018-07-05T06:08:08.673Z,29.40
2018-07-05T06:11:01.982Z,26.83
2018-07-05T06:13:55.759Z,21.90
2018-07-05T06:16:49.113Z,24.43
2018-07-05T06:19:42.672Z,25.90
2018-07-05T06:22:35.982Z,21.63
2018-07-05T06:25:29.367Z,21.30
2018-07-05T06:28:22.790Z,22.33
2018-07-05T06:31:16.484Z,23.47
2018-07-05T06:34:09.943Z,18.83
2018-07-05T06:37:03.568Z,21.63
2018-07-05T06:39:57.002Z,21.20
2018-07-05T06:42:50.425Z,19.73
2018-07-05T06:45:43.872Z,21.03
2018-07-05T06:48:37.508Z,22.10
2018-07-05T06:51:30.917Z,18.27
2018-07-05T06:54:24.495Z,29.07
2018-07-05T06:57:17.944Z,23.23
2018-07-05T07:00:11.571Z,20.17
2018-07-05T07:03:05.264Z,21.17
2018-07-05T07:05:58.884Z,19.33
2018-07-05T07:08:46.394Z,19.93
2018-07-05T07:11:40.013Z,21.50
2018-07-05T07:14:33.521Z,17.57
2018-07-05T07:17:27.163Z,22.77
2018-07-05T07:20:20.761Z,19.47
2018-07-05T07:23:14.305Z,16.67
2018-07-05T07:26:07.694Z,20.87
2018-07-05T07:29:01.342Z,17.63
2018-07-05T07:31:54.889Z,20.10
2018-07-05T07:34:48.362Z,20.23
2018-07-05T07:37:35.904Z,14.13
2018-07-05T07:40:29.413Z,16.37
2018-07-05T07:43:04.652Z,16.30
2018-07-05T07:45:33.685Z,15.97
2018-07-05T07:48:02.409Z,16.27
2018-07-05T07:50:31.201Z,13.33
2018-07-05T07:52:59.986Z,16.37
2018-07-05T07:55:28.750Z,25.27
2018-07-05T07:57:57.537Z,16.33
2018-07-05T08:00:26.316Z,13.70
2018-07-05T08:02:55.133Z,15.33
2018-07-05T08:05:23.866Z,16.77
2018-07-05T08:07:52.680Z,19.93
2018-07-05T08:10:21.392Z,14.60
2018-07-05T08:12:50.356Z,16.63
2018-07-05T08:15:19.023Z,14.37
2018-07-05T08:17:47.740Z,14.43
2018-07-05T08:20:20.167Z,12.73
2018-07-05T08:22:49.596Z,12.10
2018-07-05T08:25:18.644Z,13.80
2018-07-05T08:27:47.467Z,12.40
2018-07-05T08:30:18.970Z,15.37
2018-07-05T08:32:48.494Z,13.23
2018-07-05T08:35:19.862Z,12.47
2018-07-05T08:37:48.940Z,14.87
2018-07-05T08:40:20.795Z,11.13
2018-07-05T08:42:49.998Z,14.67
2018-07-05T08:45:19.262Z,17.47
2018-07-05T08:47:48.691Z,13.63
2018-07-05T08:50:19.605Z,12.73
2018-07-05T08:52:48.336Z,14.90
2018-07-05T08:55:18.024Z,14.53
2018-07-05T08:57:46.754Z,14.20
2018-07-05T09:00:18.529Z,17.27
2018-07-05T09:02:47.291Z,12.63
2018-07-05T09:05:29.836Z,15.30
2018-07-05T09:08:00.261Z,12.47
2018-07-05T09:10:29.006Z,11.93
2018-07-05T09:12:57.750Z,11.07
2018-07-05T09:15:26.486Z,13.27
2018-07-05T09:17:55.397Z,11.77
2018-07-05T09:20:23.993Z,11.03
2018-07-05T09:22:52.912Z,11.27
2018-07-05T09:25:21.718Z,12.20
2018-07-05T09:27:50.632Z,14.30
2018-07-05T09:30:20.130Z,11.33
2018-07-05T09:32:49.288Z,11.67
2018-07-05T09:35:30.126Z,9.83
2018-07-05T09:37:59.506Z,11.27
2018-07-05T09:40:28.758Z,10.70
2018-07-05T09:42:57.328Z,8.30
2018-07-05T09:45:26.521Z,11.93
2018-07-05T09:47:55.316Z,10.63
2018-07-05T09:50:24.029Z,10.13
2018-07-05T09:52:52.952Z,10.20
2018-07-05T09:55:21.782Z,10.57
2018-07-05T09:57:50.567Z,9.17
2018-07-05T10:00:24.351Z,11.37
2018-07-05T10:02:53.250Z,14.03
2018-07-05T10:05:24.309Z,11.07
2018-07-05T10:07:53.083Z,13.00
2018-07-05T10:10:31.604Z,11.70
2018-07-05T10:13:00.548Z,9.80
2018-07-05T10:15:29.615Z,10.30
2018-07-05T10:17:58.220Z,11.30
2018-07-05T10:20:26.997Z,10.67
2018-07-05T10:22:55.737Z,9.27
2018-07-05T10:25:24.736Z,11.40
2018-07-05T10:27:53.925Z,11.77
2018-07-05T10:30:41.109Z,12.53
2018-07-05T10:33:34.852Z,11.57
2018-07-05T10:36:09.808Z,10.87
2018-07-05T10:38:38.908Z,10.93
2018-07-05T10:41:26.188Z,11.33
2018-07-05T10:44:19.698Z,9.90
2018-07-05T10:47:13.200Z,10.83
2018-07-05T10:50:07.280Z,12.00
2018-07-05T10:53:00.564Z,12.50
2018-07-05T10:55:54.055Z,9.57
2018-07-05T10:58:47.439Z,11.77
2018-07-05T11:01:40.870Z,7.17
2018-07-05T11:04:34.395Z,9.13
2018-07-05T11:07:27.909Z,10.40
2018-07-05T11:10:21.959Z,8.57
2018-07-05T11:13:15.512Z,9.43
2018-07-05T11:16:09.083Z,9.53
2018-07-05T11:19:03.090Z,11.97
2018-07-05T11:22:03.009Z,7.60
2018-07-05T11:24:57.062Z,6.90
2018-07-05T11:27:50.885Z,7.17
2018-07-05T11:30:44.284Z,7.40
2018-07-05T11:33:37.675Z,9.33
2018-07-05T11:36:31.191Z,10.17
2018-07-05T11:39:24.946Z,9.40
2018-07-05T11:42:19.416Z,7.77
2018-07-05T11:45:16.666Z,9.40
2018-07-05T11:48:04.188Z,8.37
2018-07-05T11:50:57.586Z,8.90
2018-07-05T11:53:51.285Z,7.20
2018-07-05T11:56:44.663Z,6.90
2018-07-05T11:59:37.992Z,8.40
2018-07-05T12:02:31.391Z,7.20
2018-07-05T12:05:24.872Z,7.93
2018-07-05T12:08:18.089Z,12.03
2018-07-05T12:11:11.728Z,9.00
2018-07-05T12:14:05.538Z,10.23
2018-07-05T12:16:59.125Z,12.60
2018-07-05T12:19:52.584Z,9.97
2018-07-05T12:22:46.046Z,7.37
2018-07-05T12:25:39.529Z,7.80
2018-07-05T12:28:32.984Z,8.13
2018-07-05T12:31:26.752Z,7.87
2018-07-05T12:34:19.987Z,9.17
2018-07-05T12:37:13.568Z,8.93
2018-07-05T12:40:07.016Z,13.63
2018-07-05T12:43:01.814Z,9.43
2018-07-05T12:45:55.285Z,9.40
2018-07-05T12:48:48.796Z,13.10
2018-07-05T12:51:42.312Z,10.27
2018-07-05T12:54:35.946Z,11.63
2018-07-05T12:57:29.825Z,7.80
2018-07-05T13:00:23.209Z,7.40
2018-07-05T13:03:16.740Z,7.80
2018-07-05T13:06:10.246Z,10.17
2018-07-05T13:09:05.395Z,8.10
2018-07-05T13:11:58.885Z,8.37
2018-07-05T13:14:52.306Z,7.97
2018-07-05T13:17:45.728Z,7.43
2018-07-05T13:20:39.502Z,10.67
2018-07-05T13:23:34.101Z,12.83
2018-07-05T13:26:27.680Z,14.43
2018-07-05T13:29:21.231Z,9.73
2018-07-05T13:32:14.723Z,9.53
2018-07-05T13:35:08.225Z,11.23
2018-07-05T13:38:02.960Z,8.77
2018-07-05T13:40:56.646Z,8.73
2018-07-05T13:43:50.644Z,10.57
2018-07-05T13:46:44.545Z,11.30
2018-07-05T13:49:38.092Z,10.53
2018-07-05T13:52:31.983Z,11.37
2018-07-05T13:55:25.612Z,12.77
2018-07-05T13:58:19.210Z,11.37
2018-07-05T14:01:12.895Z,10.30
2018-07-05T14:04:06.760Z,9.23
2018-07-05T14:07:01.039Z,13.50
2018-07-05T14:09:54.473Z,11.73
2018-07-05T14:12:48.031Z,9.50
2018-07-05T14:15:35.628Z,10.83
2018-07-05T14:18:29.707Z,11.97
2018-07-05T14:21:24.488Z,13.07
2018-07-05T14:24:18.279Z,15.07
2018-07-05T14:27:11.709Z,9.33
2018-07-05T14:30:05.434Z,9.53
2018-07-05T14:32:59.051Z,9.00
2018-07-05T14:35:52.453Z,9.20
2018-07-05T14:38:45.889Z,13.17
2018-07-05T14:41:39.692Z,9.00
2018-07-05T14:44:39.490Z,10.90
2018-07-05T14:47:38.216Z,11.20
2018-07-05T14:50:31.907Z,8.10
2018-07-05T14:53:25.596Z,10.50
2018-07-05T14:56:19.004Z,11.20
2018-07-05T14:59:12.526Z,12.27
2018-07-05T15:02:05.997Z,10.83
2018-07-05T15:04:59.631Z,14.23
2018-07-05T15:07:53.074Z,10.53
2018-07-05T15:10:46.934Z,9.67
2018-07-05T15:13:40.669Z,10.17
2018-07-05T15:16:34.716Z,11.33
2018-07-05T15:19:28.349Z,10.53
2018-07-05T15:22:21.919Z,11.70
2018-07-05T15:25:15.992Z,11.97
2018-07-05T15:28:09.543Z,9.70
2018-07-05T15:31:02.994Z,9.67
2018-07-05T15:33:56.767Z,11.27
2018-07-05T15:36:50.234Z,10.47
2018-07-05T15:39:45.907Z,11.13
2018-07-05T15:42:39.409Z,8.20
2018-07-05T15:45:32.953Z,10.63
2018-07-05T15:48:26.321Z,12.27
2018-07-05T15:51:19.680Z,11.20
2018-07-05T15:54:13.891Z,12.37
2018-07-05T15:57:07.206Z,9.03
2018-07-05T16:00:00.821Z,9.50
2018-07-05T16:02:54.390Z,9.83
2018-07-05T16:05:52.091Z,13.87
2018-07-05T16:08:45.573Z,13.73
2018-07-05T16:11:38.982Z,9.87
2018-07-05T16:14:32.338Z,9.17
2018-07-05T16:17:25.914Z,12.63
2018-07-05T16:20:19.451Z,9.07
2018-07-05T16:23:12.922Z,9.07
2018-07-05T16:26:06.601Z,10.33
2018-07-05T16:29:00.985Z,8.00
2018-07-05T16:31:54.489Z,9.37
2018-07-05T16:34:47.863Z,9.23
2018-07-05T16:37:41.477Z,10.80
2018-07-05T16:40:35.343Z,12.50
2018-07-05T16:43:28.849Z,10.30
2018-07-05T16:46:22.448Z,13.67
2018-07-05T16:49:16.293Z,9.10
2018-07-05T16:52:09.802Z,8.53
2018-07-05T16:55:03.316Z,11.40
2018-07-05T16:57:56.874Z,11.07
2018-07-05T17:00:50.466Z,14.43
2018-07-05T17:03:43.962Z,7.90
2018-07-05T17:06:37.900Z,11.60
2018-07-05T17:09:31.399Z,11.03
2018-07-05T17:12:25.615Z,10.53
2018-07-05T17:15:18.981Z,11.40
2018-07-05T17:18:08.590Z,8.40
2018-07-05T17:21:01.985Z,11.43
2018-07-05T17:23:55.557Z,10.63
2018-07-05T17:26:48.894Z,15.13
2018-07-05T17:29:42.673Z,13.07
2018-07-05T17:32:37.564Z,10.13
2018-07-05T17:35:25.196Z,11.93
2018-07-05T17:38:18.805Z,14.60
2018-07-05T17:41:12.188Z,12.30
2018-07-05T17:44:05.723Z,10.67
2018-07-05T17:46:59.086Z,10.57
2018-07-05T17:49:52.405Z,17.57
2018-07-05T17:52:45.993Z,9.53
2018-07-05T17:55:39.567Z,12.23
2018-07-05T17:58:33.003Z,12.23
2018-07-05T18:01:26.474Z,12.77
2018-07-05T18:04:19.980Z,11.30
2018-07-05T18:07:13.649Z,12.50
2018-07-05T18:10:07.109Z,12.57
2018-07-05T18:13:00.528Z,14.67
2018-07-05T18:15:58.206Z,13.50
2018-07-05T18:18:51.867Z,12.00
2018-07-05T18:21:45.649Z,10.83
2018-07-05T18:24:39.441Z,9.93
2018-07-05T18:27:35.022Z,15.10
2018-07-05T18:30:28.403Z,9.83
2018-07-05T18:33:21.845Z,12.20
2018-07-05T18:36:15.512Z,9.80
2018-07-05T18:39:08.955Z,10.80
2018-07-05T18:42:02.525Z,9.27
2018-07-05T18:44:56.382Z,12.77
2018-07-05T18:47:49.798Z,12.60
2018-07-05T18:50:44.100Z,11.33
2018-07-05T18:53:38.076Z,13.87
2018-07-05T18:56:33.004Z,11.10
2018-07-05T18:59:26.772Z,13.17
2018-07-05T19:02:20.342Z,9.90
2018-07-05T19:05:15.121Z,12.53
2018-07-05T19:08:02.645Z,15.20
2018-07-05T19:10:56.039Z,13.47
2018-07-05T19:13:55.581Z,14.57
2018-07-05T19:16:49.321Z,11.13
2018-07-05T19:19:42.989Z,15.03
2018-07-05T19:22:36.425Z,15.00
2018-07-05T19:25:29.937Z,15.97
2018-07-05T19:28:23.634Z,12.37
2018-07-05T19:31:17.005Z,15.23
2018-07-05T19:34:10.593Z,13.00
2018-07-05T19:37:04.024Z,18.00
2018-07-05T19:39:57.534Z,15.10
2018-07-05T19:42:51.870Z,15.27
2018-07-05T19:45:45.327Z,13.70
2018-07-05T19:48:38.964Z,12.13
2018-07-05T19:51:33.184Z,15.90
2018-07-05T19:54:26.775Z,16.53
2018-07-05T19:57:20.253Z,17.83
2018-07-05T20:00:13.752Z,12.37
2018-07-05T20:03:07.869Z,16.03
2018-07-05T20:06:09.528Z,14.03
2018-07-05T20:09:05.350Z,13.13
2018-07-05T20:12:06.182Z,14.57
2018-07-05T20:15:00.615Z,16.43
2018-07-05T20:17:55.329Z,15.13
2018-07-05T20:20:49.056Z,18.70
2018-07-05T20:23:42.715Z,16.87
2018-07-05T20:26:36.415Z,18.30
2018-07-05T20:29:30.452Z,18.30
2018-07-05T20:32:26.766Z,25.37
2018-07-05T20:35:22.162Z,15.60
2018-07-05T20:38:16.183Z,15.07
2018-07-05T20:41:09.956Z,16.40
2018-07-05T20:44:03.813Z,19.93
2018-07-05T20:46:57.453Z,19.07
2018-07-05T20:49:50.978Z,17.43
2018-07-05T20:52:44.829Z,15.70
2018-07-05T20:55:40.554Z,19.33
2018-07-05T20:58:34.896Z,19.70
2018-07-05T21:01:28.357Z,18.97
2018-07-05T21:04:22.480Z,21.13
2018-07-05T21:07:10.344Z,16.77
2018-07-05T21:09:58.138Z,19.07
2018-07-05T21:12:53.403Z,21.40
2018-07-05T21:15:47.112Z,19.50
2018-07-05T21:18:40.919Z,16.37
2018-07-05T21:21:37.727Z,20.23
2018-07-05T21:24:31.526Z,19.80
2018-07-05T21:27:25.455Z,17.90
2018-07-05T21:30:23.571Z,20.57
2018-07-05T21:33:18.713Z,20.17
2018-07-05T21:36:12.424Z,22.97
2018-07-05T21:39:05.980Z,20.43
2018-07-05T21:41:59.908Z,22.63
2018-07-05T21:44:53.576Z,21.43
2018-07-05T21:47:47.869Z,23.20
2018-07-05T21:50:41.794Z,28.03
2018-07-05T21:53:35.476Z,21.37
2018-07-05T21:56:29.340Z,24.00
2018-07-05T21:59:23.165Z,20.83
2018-07-05T22:02:16.746Z,21.27
2018-07-05T22:05:18.660Z,21.77
2018-07-05T22:08:12.169Z,23.67
2018-07-05T22:11:06.500Z,24.23
2018-07-05T22:14:00.271Z,21.07
2018-07-05T22:16:58.808Z,21.50
2018-07-05T22:19:57.283Z,24.07
2018-07-05T22:22:55.992Z,22.43
2018-07-05T22:25:54.907Z,23.30
2018-07-05T22:28:53.500Z,23.77
2018-07-05T22:31:51.125Z,21.83
2018-07-05T22:34:44.463Z,24.83
2018-07-05T22:37:38.332Z,22.23
2018-07-05T22:40:32.144Z,22.57
2018-07-05T22:43:26.400Z,25.17
2018-07-05T22:46:21.314Z,31.60
2018-07-05T22:49:15.108Z,28.17
2018-07-05T22:52:09.125Z,27.23
2018-07-05T22:55:03.071Z,28.43
2018-07-05T22:57:56.838Z,31.27
2018-07-05T23:00:50.660Z,30.33
2018-07-05T23:03:44.428Z,27.23
2018-07-05T23:06:37.946Z,24.43
2018-07-05T23:09:25.586Z,27.23
2018-07-05T23:12:19.091Z,22.97
2018-07-05T23:15:17.008Z,24.30
2018-07-05T23:18:10.549Z,32.00
2018-07-05T23:21:04.259Z,31.57
2018-07-05T23:23:57.999Z,25.87
2018-07-05T23:26:51.553Z,29.90
2018-07-05T23:29:45.023Z,30.03
2018-07-05T23:32:38.612Z,29.30
2018-07-05T23:35:32.297Z,31.30
2018-07-05T23:38:25.962Z,27.87
2018-07-05T23:41:19.800Z,28.73
2018-07-05T23:44:13.460Z,26.67
2018-07-05T23:47:07.104Z,28.87
2018-07-05T23:50:01.440Z,28.57
2018-07-05T23:52:55.096Z,29.47
2018-07-05T23:55:48.785Z,31.57
2018-07-05T23:58:42.312Z,35.37
